createdAt,value
2024-02-18T00:05:56.507Z,99.99
2024-02-18T00:15:56.885Z,99.99
2024-02-18T00:25:56.891Z,99.89
2024-02-18T00:35:57.134Z,99.17
2024-02-18T00:45:57.438Z,99.68
2024-02-18T00:55:57.605Z,99.38
2024-02-18T01:05:57.870Z,99.38
2024-02-18T01:15:58.089Z,99.68
2024-02-18T01:25:58.274Z,99.99
2024-02-18T01:35:58.553Z,99.99
2024-02-18T01:45:58.564Z,99.99
2024-02-18T01:55:58.810Z,99.99
2024-02-18T02:05:59.015Z,99.99
2024-02-18T02:15:59.248Z,99.99
2024-02-18T02:25:59.254Z,99.93
2024-02-18T02:35:59.544Z,99.99
2024-02-18T02:45:59.566Z,99.99
2024-02-18T02:55:59.809Z,99.27
2024-02-18T03:05:59.901Z,99.38
2024-02-18T03:16:00.007Z,99.52
2024-02-18T03:26:00.167Z,99.07
2024-02-18T03:36:07.045Z,99.38
2024-02-18T03:46:00.431Z,99.58
2024-02-18T03:56:00.608Z,99.89
2024-02-18T04:06:00.839Z,99.48
2024-02-18T04:16:01.107Z,99.57
2024-02-18T04:26:01.059Z,99.93
2024-02-18T04:36:01.376Z,99.99
2024-02-18T04:46:01.407Z,99.93
2024-02-18T04:56:01.619Z,99.83
2024-02-18T05:06:01.908Z,99.93
2024-02-18T05:16:02.179Z,99.99
2024-02-18T05:26:02.198Z,99.99
2024-02-18T05:36:02.494Z,99.99
2024-02-18T05:46:02.474Z,99.99
2024-02-18T05:56:02.785Z,99.99
2024-02-18T06:06:02.858Z,99.99
2024-02-18T06:16:06.249Z,99.99
2024-02-18T06:26:03.085Z,99.99
2024-02-18T06:36:03.295Z,99.99
2024-02-18T06:46:03.622Z,99.99
2024-02-18T06:56:03.656Z,99.99
2024-02-18T07:06:03.887Z,99.99
2024-02-18T07:16:04.193Z,99.99
2024-02-18T07:26:04.353Z,99.99
2024-02-18T07:36:04.587Z,99.99
2024-02-18T07:46:04.821Z,99.99
2024-02-18T07:56:05.077Z,99.99
2024-02-18T08:06:05.064Z,99.99
2024-02-18T08:16:05.610Z,99.99
2024-02-18T08:26:05.383Z,99.99
2024-02-18T08:36:05.610Z,99.99
2024-02-18T08:46:05.832Z,99.99
2024-02-18T08:56:06.182Z,99.99
2024-02-18T09:06:06.245Z,99.99
2024-02-18T09:16:06.544Z,99.42
2024-02-18T09:26:06.541Z,99.83
2024-02-18T09:36:06.821Z,98.82
2024-02-18T09:46:07.073Z,96.67
2024-02-18T09:56:07.289Z,93.73
2024-02-18T10:06:07.503Z,90.43
2024-02-18T10:16:07.793Z,89.37
2024-02-18T10:26:07.810Z,88.96
2024-02-18T10:36:08.101Z,89.06
2024-02-18T10:46:11.613Z,89.51
2024-02-18T10:56:09.303Z,88.55
2024-02-18T11:06:08.632Z,87.02
2024-02-18T11:16:08.814Z,86.73
2024-02-18T11:26:08.877Z,86.33
2024-02-18T11:36:09.110Z,84.00
2024-02-18T11:46:11.266Z,83.21
2024-02-18T11:56:09.185Z,80.56
2024-02-18T12:06:09.441Z,79.00
2024-02-18T12:16:09.653Z,78.96
2024-02-18T12:26:09.966Z,78.28
2024-02-18T12:36:09.930Z,79.41
2024-02-18T12:46:10.552Z,80.11
2024-02-18T12:56:10.521Z,81.65
2024-02-18T13:06:10.662Z,82.29
2024-02-18T13:16:10.824Z,84.86
2024-02-18T13:26:10.866Z,85.04
2024-02-18T13:36:11.071Z,87.32
2024-02-18T13:46:11.408Z,86.30
2024-02-18T13:56:13.774Z,86.30
2024-02-18T14:06:11.515Z,86.00
2024-02-18T14:16:11.762Z,86.10
2024-02-18T14:26:11.975Z,86.61
2024-02-18T14:36:12.290Z,87.57
2024-02-18T14:46:12.670Z,87.10
2024-02-18T14:56:12.827Z,87.00
2024-02-18T15:06:12.883Z,85.47
2024-02-18T15:16:12.814Z,80.18
2024-02-18T15:26:12.807Z,81.79
2024-02-18T15:36:12.974Z,80.05
2024-02-18T15:46:13.313Z,77.08
2024-02-18T15:56:13.281Z,79.06
2024-02-18T16:06:13.689Z,85.28
2024-02-18T16:16:13.727Z,86.36
2024-02-18T16:26:13.902Z,85.79
2024-02-18T16:36:14.065Z,85.58
2024-02-18T16:46:14.459Z,83.74
2024-02-18T16:56:14.454Z,84.70
2024-02-18T17:06:15.745Z,83.95
2024-02-18T17:16:14.723Z,84.46
2024-02-18T17:26:14.967Z,84.15
2024-02-18T17:36:15.294Z,85.01
2024-02-18T17:46:15.424Z,85.77
2024-02-18T17:56:15.372Z,86.07
2024-02-18T18:06:15.644Z,87.96
2024-02-18T18:16:20.201Z,88.17
2024-02-18T18:26:15.978Z,88.92
2024-02-18T18:36:16.199Z,89.69
2024-02-18T18:46:16.421Z,91.41
2024-02-18T18:56:16.696Z,91.93
2024-02-18T19:06:16.741Z,91.41
2024-02-18T19:16:16.974Z,92.33
2024-02-18T19:26:16.984Z,92.13
2024-02-18T19:36:17.386Z,89.89
2024-02-18T19:46:17.539Z,92.33
2024-02-18T19:56:17.709Z,92.95
2024-02-18T20:06:17.710Z,91.37
2024-02-18T20:16:18.097Z,89.52
2024-02-18T20:26:18.035Z,87.22
2024-02-18T20:36:19.558Z,88.04
2024-02-18T20:46:20.032Z,90.85
2024-02-18T20:56:18.603Z,91.67
2024-02-18T21:06:18.584Z,92.44
2024-02-18T21:16:18.795Z,89.48
2024-02-18T21:26:21.398Z,91.37
2024-02-18T21:36:19.254Z,85.19
2024-02-18T21:46:19.427Z,85.50
2024-02-18T21:56:19.496Z,88.66
2024-02-18T22:06:19.527Z,90.95
2024-02-18T22:16:19.792Z,91.20
2024-02-18T22:26:19.932Z,91.51
2024-02-18T22:36:20.144Z,91.41
2024-02-18T22:46:20.353Z,91.61
2024-02-18T22:56:20.509Z,91.51
2024-02-18T23:06:20.775Z,91.93
2024-02-18T23:16:21.153Z,92.13
2024-02-18T23:26:21.190Z,90.18
2024-02-18T23:36:21.553Z,91.16
2024-02-18T23:46:21.889Z,92.64
2024-02-18T23:56:21.725Z,92.69
